createdAt,value
2023-04-24T00:00:41.969Z,77.13
2023-04-24T00:01:42.804Z,76.99
2023-04-24T00:02:39.831Z,76.95
2023-04-24T00:03:38.810Z,76.98
2023-04-24T00:04:39.854Z,77.05
2023-04-24T00:05:39.886Z,77.13
2023-04-24T00:06:39.868Z,77.01
2023-04-24T00:07:39.720Z,77.06
2023-04-24T00:08:39.874Z,77.20
2023-04-24T00:09:39.734Z,77.21
2023-04-24T00:10:39.771Z,77.31
2023-04-24T00:11:39.757Z,77.42
2023-04-24T00:12:39.401Z,77.5
2023-04-24T00:13:38.995Z,77.58
2023-04-24T00:14:38.874Z,77.89
2023-04-24T00:15:39.360Z,78.03
2023-04-24T00:16:38.888Z,78.11
2023-04-24T00:17:39.494Z,78.12
2023-04-24T00:18:39.386Z,78.11
2023-04-24T00:19:38.895Z,78.12
2023-04-24T00:20:39.609Z,78.34
2023-04-24T00:21:39.729Z,78.44
2023-04-24T00:22:39.285Z,78.51
2023-04-24T00:23:39.196Z,78.60
2023-04-24T00:24:38.851Z,78.53
2023-04-24T00:25:39.217Z,78.66
2023-04-24T00:26:39.258Z,78.72
2023-04-24T00:27:39.356Z,78.72
2023-04-24T00:28:39.706Z,78.68
2023-04-24T00:29:39.028Z,78.63
2023-04-24T00:30:39.171Z,78.65
2023-04-24T00:31:38.629Z,78.55
2023-04-24T00:32:39.255Z,78.59
2023-04-24T00:33:39.193Z,78.51
2023-04-24T00:34:38.318Z,78.30
2023-04-24T00:35:39.163Z,78.06
2023-04-24T00:36:39.207Z,78.08
2023-04-24T00:37:39.115Z,77.86
2023-04-24T00:38:39.297Z,77.76
2023-04-24T00:39:39.794Z,77.75
2023-04-24T00:40:39.323Z,77.77
2023-04-24T00:41:39.193Z,77.65
2023-04-24T00:42:38.927Z,77.57
2023-04-24T00:43:39.094Z,77.52
2023-04-24T00:44:38.461Z,77.39
2023-04-24T00:45:39.174Z,77.27
2023-04-24T00:46:39.129Z,76.97
2023-04-24T00:47:39.144Z,76.88
2023-04-24T00:48:38.954Z,76.70
2023-04-24T00:49:39.713Z,76.52
2023-04-24T00:50:39.350Z,76.50
2023-04-24T00:51:38.978Z,76.52
2023-04-24T00:52:38.847Z,76.54
2023-04-24T00:53:39.873Z,76.54
2023-04-24T00:54:39.445Z,76.34
2023-04-24T00:55:39.418Z,76.33
2023-04-24T00:56:39.259Z,76
2023-04-24T00:57:39.165Z,75.67
2023-04-24T00:58:38.777Z,75.44
2023-04-24T00:59:39.365Z,75.08
2023-04-24T01:00:40.512Z,75.11
2023-04-24T01:01:39.397Z,75.05
2023-04-24T01:02:39.781Z,74.99
2023-04-24T01:03:40.061Z,74.93
2023-04-24T01:04:39.519Z,74.85
2023-04-24T01:05:39.588Z,74.91
2023-04-24T01:06:39.287Z,75.02
2023-04-24T01:07:39.127Z,75.11
2023-04-24T01:08:39.491Z,75.20
2023-04-24T01:09:39.748Z,75.13
2023-04-24T01:10:38.925Z,75.10
2023-04-24T01:11:39.655Z,74.98
2023-04-24T01:12:39.057Z,74.87
2023-04-24T01:13:38.541Z,74.87
2023-04-24T01:14:39.526Z,74.74
2023-04-24T01:15:39.518Z,74.68
2023-04-24T01:16:40.069Z,74.70
2023-04-24T01:17:39.413Z,74.67
2023-04-24T01:18:40.076Z,74.34
2023-04-24T01:19:38.880Z,74.25
2023-04-24T01:20:40.435Z,74.01
2023-04-24T01:21:38.941Z,73.87
2023-04-24T01:22:39.956Z,73.77
2023-04-24T01:23:39.504Z,73.73
2023-04-24T01:24:39.192Z,73.68
2023-04-24T01:25:39.235Z,73.61
2023-04-24T01:26:39.080Z,73.61
2023-04-24T01:27:39.182Z,73.65
2023-04-24T01:28:38.843Z,73.64
2023-04-24T01:29:39.405Z,73.60
2023-04-24T01:30:39.664Z,73.19
2023-04-24T01:31:39.232Z,73.07
2023-04-24T01:32:39.487Z,72.88
2023-04-24T01:33:38.918Z,72.57
2023-04-24T01:34:39.544Z,72.55
2023-04-24T01:35:39.149Z,72.36
2023-04-24T01:36:47.281Z,72.24
2023-04-24T01:37:39.156Z,72.19
2023-04-24T01:38:39.177Z,72.08
2023-04-24T01:39:39.113Z,72.06
2023-04-24T01:40:39.037Z,71.97
2023-04-24T01:41:38.854Z,71.88
2023-04-24T01:42:38.951Z,71.72
2023-04-24T01:43:39.483Z,71.77
2023-04-24T01:44:39.866Z,71.71
2023-04-24T01:45:39.862Z,71.58
2023-04-24T01:46:39.394Z,71.54
2023-04-24T01:47:39.277Z,71.41
2023-04-24T01:48:39.152Z,71.33
2023-04-24T01:49:39.288Z,71.36
2023-04-24T01:50:38.712Z,71.38
2023-04-24T01:51:39.092Z,71.49
2023-04-24T01:52:38.856Z,71.51
2023-04-24T01:53:39.145Z,71.42
2023-04-24T01:54:38.636Z,71.48
2023-04-24T01:55:39.538Z,71.58
2023-04-24T01:56:39.220Z,71.58
2023-04-24T01:57:38.904Z,71.57
2023-04-24T01:58:39.433Z,71.74
2023-04-24T01:59:39.705Z,71.69
2023-04-24T02:00:59.344Z,71.62
2023-04-24T02:01:38.936Z,71.63
2023-04-24T02:02:39.451Z,71.68
2023-04-24T02:03:39.648Z,71.61
2023-04-24T02:04:39.359Z,71.62
2023-04-24T02:05:39.447Z,71.57
2023-04-24T02:06:38.929Z,71.46
2023-04-24T02:07:39.780Z,71.38
2023-04-24T02:08:39.241Z,71.35
2023-04-24T02:09:39.210Z,71.48
2023-04-24T02:10:39.435Z,71.34
2023-04-24T02:11:38.882Z,71.25
2023-04-24T02:12:39.273Z,71.26
2023-04-24T02:13:39.140Z,71.35
2023-04-24T02:14:39.072Z,71.39
2023-04-24T02:15:38.963Z,71.39
2023-04-24T02:16:39.005Z,71.41
2023-04-24T02:17:39.182Z,71.48
2023-04-24T02:18:38.732Z,71.58
2023-04-24T02:19:39.443Z,71.69
2023-04-24T02:20:40.371Z,71.68
2023-04-24T02:21:39.208Z,71.81
2023-04-24T02:22:39.235Z,72.00
2023-04-24T02:23:38.872Z,72.19
2023-04-24T02:24:39.620Z,72.34
2023-04-24T02:25:39.608Z,72.51
2023-04-24T02:26:39.907Z,72.60
2023-04-24T02:27:40.871Z,72.63
2023-04-24T02:28:40.301Z,72.54
2023-04-24T02:29:39.510Z,72.40
2023-04-24T02:30:39.984Z,72.34
2023-04-24T02:31:39.353Z,72.38
2023-04-24T02:32:39.232Z,72.49
2023-04-24T02:33:39.568Z,72.52
2023-04-24T02:34:40.368Z,72.68
2023-04-24T02:35:38.802Z,72.62
2023-04-24T02:36:39.336Z,72.48
2023-04-24T02:37:38.394Z,72.45
2023-04-24T02:38:39.751Z,72.45
2023-04-24T02:39:39.840Z,72.46
2023-04-24T02:41:17.458Z,72.44
2023-04-24T02:41:43.633Z,72.22
2023-04-24T02:42:39.283Z,72.17
2023-04-24T02:43:39.241Z,72.30
2023-04-24T02:44:38.852Z,72.42
2023-04-24T02:45:40.042Z,72.50
2023-04-24T02:46:39.042Z,72.43
2023-04-24T02:47:39.060Z,72.44
2023-04-24T02:48:39.296Z,72.48
2023-04-24T02:49:39.147Z,72.54
2023-04-24T02:50:38.897Z,72.49
2023-04-24T02:51:38.914Z,72.42
2023-04-24T02:52:39.346Z,72.28
2023-04-24T02:53:39.076Z,72.11
2023-04-24T02:54:39.073Z,72.18
2023-04-24T02:55:39.237Z,72.26
2023-04-24T02:56:39.478Z,72.37
2023-04-24T02:57:39.229Z,72.50
2023-04-24T02:58:38.863Z,72.43
2023-04-24T02:59:39.542Z,72.42
2023-04-24T03:00:40.748Z,72.42
2023-04-24T03:01:40.496Z,72.36
2023-04-24T03:02:39.867Z,72.38
2023-04-24T03:03:39.651Z,72.33
2023-04-24T03:04:39.480Z,72.26
2023-04-24T03:05:39.187Z,72.18
2023-04-24T03:06:39.123Z,72.23
2023-04-24T03:07:38.902Z,72.22
2023-04-24T03:08:39.377Z,72.36
2023-04-24T03:09:44.494Z,72.45
2023-04-24T03:10:39.525Z,72.41
2023-04-24T03:11:38.823Z,72.47
2023-04-24T03:12:39.178Z,72.48
2023-04-24T03:13:43.462Z,72.57
2023-04-24T03:14:39.277Z,72.75
2023-04-24T03:15:38.590Z,72.81
2023-04-24T03:16:39.382Z,72.74
2023-04-24T03:17:39.283Z,72.79
2023-04-24T03:18:39.190Z,72.70
2023-04-24T03:19:38.631Z,72.68
2023-04-24T03:20:39.718Z,72.78
2023-04-24T03:21:39.513Z,72.83
2023-04-24T03:22:39.721Z,72.86
2023-04-24T03:23:39.635Z,72.95
2023-04-24T03:24:39.641Z,72.92
2023-04-24T03:25:39.204Z,72.80
2023-04-24T03:26:39.160Z,72.96
2023-04-24T03:27:39.193Z,72.92
2023-04-24T03:28:39.755Z,72.97
2023-04-24T03:29:39.487Z,73.03
2023-04-24T03:30:39.652Z,73.04
2023-04-24T03:31:39.827Z,73.18
2023-04-24T03:32:40.590Z,73.20
2023-04-24T03:33:39.347Z,73.39
2023-04-24T03:34:38.867Z,73.23
2023-04-24T03:35:39.707Z,73.24
2023-04-24T03:36:39.635Z,73.60
2023-04-24T03:37:39.102Z,73.22
2023-04-24T03:38:38.939Z,73.28
2023-04-24T03:39:39.392Z,73.37
2023-04-24T03:40:39.939Z,73.47
2023-04-24T03:41:39.751Z,73.18
2023-04-24T03:42:39.611Z,73.17
2023-04-24T03:43:39.127Z,73.34
2023-04-24T03:44:39.246Z,73.60
2023-04-24T03:45:39.672Z,73.34
2023-04-24T03:46:39.530Z,73.17
2023-04-24T03:47:39.231Z,73.17
2023-04-24T03:48:39.907Z,73.20
2023-04-24T03:49:39.472Z,73.20
2023-04-24T03:50:39.720Z,73.20
2023-04-24T03:51:39.963Z,73.18
2023-04-24T03:52:39.746Z,73.27
2023-04-24T03:53:39.254Z,73.23
2023-04-24T03:54:38.965Z,73.24
2023-04-24T03:55:39.561Z,73.20
2023-04-24T03:56:39.451Z,73.25
2023-04-24T03:57:39.510Z,73.28
2023-04-24T03:58:39.313Z,73.32
2023-04-24T03:59:39.433Z,73.36
2023-04-24T04:00:40.248Z,73.32
2023-04-24T04:01:39.841Z,73.26
2023-04-24T04:02:40.284Z,73.36
2023-04-24T04:03:40.724Z,73.49
2023-04-24T04:04:40.306Z,73.63
2023-04-24T04:05:38.984Z,73.73
2023-04-24T04:06:39.039Z,73.95
2023-04-24T04:07:39.757Z,74
2023-04-24T04:08:40.032Z,73.94
2023-04-24T04:09:38.702Z,73.96
2023-04-24T04:10:40.010Z,73.93
2023-04-24T04:11:39.191Z,73.73
2023-04-24T04:12:39.768Z,73.72
2023-04-24T04:13:39.873Z,73.85
2023-04-24T04:14:39.834Z,73.86
2023-04-24T04:15:39.607Z,73.86
2023-04-24T04:16:39.320Z,73.92
2023-04-24T04:17:39.408Z,73.97
2023-04-24T04:18:39.803Z,73.97
2023-04-24T04:19:58.450Z,73.97
2023-04-24T04:20:39.839Z,73.98
2023-04-24T04:21:39.833Z,74.00
2023-04-24T04:22:41.325Z,74.03
2023-04-24T04:23:40.437Z,74.07
2023-04-24T04:24:39.291Z,74.09
2023-04-24T04:25:39.958Z,74.15
2023-04-24T04:26:40.132Z,74.08
2023-04-24T04:27:39.412Z,74.09
2023-04-24T04:28:39.574Z,74.08
2023-04-24T04:29:38.926Z,74.15
2023-04-24T04:30:40.152Z,74.12
2023-04-24T04:31:39.638Z,74.09
2023-04-24T04:32:39.609Z,74.02
2023-04-24T04:33:39.844Z,74.04
2023-04-24T04:34:39.920Z,74.04
2023-04-24T04:35:40.201Z,74.17
2023-04-24T04:36:39.732Z,74.23
2023-04-24T04:37:39.661Z,74.23
2023-04-24T04:38:41.144Z,74.29
2023-04-24T04:39:39.507Z,74.26
2023-04-24T04:40:39.775Z,74.30
2023-04-24T04:41:40.233Z,74.26
2023-04-24T04:42:39.566Z,74.36
2023-04-24T04:43:39.707Z,74.43
2023-04-24T04:44:39.447Z,74.39
2023-04-24T04:45:39.896Z,74.37
2023-04-24T04:46:40.270Z,74.39
2023-04-24T04:47:39.725Z,74.42
2023-04-24T04:48:39.892Z,74.36
2023-04-24T04:49:40.437Z,74.42
2023-04-24T04:50:39.574Z,74.48
2023-04-24T04:51:42.420Z,74.50
2023-04-24T04:52:40.418Z,74.52
2023-04-24T04:53:40.108Z,74.58
2023-04-24T04:54:39.745Z,74.64
2023-04-24T04:55:39.870Z,74.45
2023-04-24T04:56:40.364Z,74.35
2023-04-24T04:57:40.358Z,74.27
2023-04-24T04:58:39.726Z,74.25
2023-04-24T04:59:39.381Z,74.23
2023-04-24T05:00:41.036Z,74.16
2023-04-24T05:01:40.217Z,74.13
2023-04-24T05:02:40.504Z,74.09
2023-04-24T05:03:40.537Z,74.05
2023-04-24T05:04:40.504Z,73.87
2023-04-24T05:05:39.815Z,73.98
2023-04-24T05:06:40.127Z,73.99
2023-04-24T05:07:39.977Z,73.99
2023-04-24T05:08:43.228Z,73.86
2023-04-24T05:09:39.736Z,73.84
2023-04-24T05:10:40.332Z,73.96
2023-04-24T05:11:39.478Z,73.93
2023-04-24T05:12:39.405Z,73.98
2023-04-24T05:13:54.740Z,73.95
2023-04-24T05:14:39.959Z,73.94
2023-04-24T05:15:40.227Z,73.95
2023-04-24T05:16:39.529Z,73.95
2023-04-24T05:17:39.712Z,73.81
2023-04-24T05:18:40.014Z,73.83
2023-04-24T05:19:39.448Z,73.87
2023-04-24T05:20:39.519Z,73.94
2023-04-24T05:21:39.566Z,73.97
2023-04-24T05:22:40.093Z,73.73
2023-04-24T05:23:39.794Z,73.60
2023-04-24T05:24:40.376Z,73.74
2023-04-24T05:25:40.061Z,73.69
2023-04-24T05:26:39.116Z,73.76
2023-04-24T05:27:39.280Z,73.87
2023-04-24T05:28:39.853Z,73.92
2023-04-24T05:29:40.145Z,73.97
2023-04-24T05:30:40.125Z,73.86
2023-04-24T05:31:39.723Z,73.91
2023-04-24T05:32:39.872Z,73.93
2023-04-24T05:33:40.263Z,73.95
2023-04-24T05:34:44.824Z,73.93
2023-04-24T05:35:40.480Z,73.94
2023-04-24T05:36:39.637Z,73.98
2023-04-24T05:37:39.897Z,74.11
2023-04-24T05:38:40.534Z,74.14
2023-04-24T05:39:40.052Z,74.17
2023-04-24T05:40:45.390Z,74.18
2023-04-24T05:41:39.800Z,74.12
2023-04-24T05:42:50.268Z,74.12
2023-04-24T05:43:39.886Z,74.13
2023-04-24T05:44:40.170Z,74.13
2023-04-24T05:45:39.403Z,74.26
2023-04-24T05:46:40.153Z,74.63
2023-04-24T05:47:39.865Z,74.37
2023-04-24T05:48:40.291Z,74.48
2023-04-24T05:49:39.003Z,74.66
2023-04-24T05:50:39.917Z,74.51
2023-04-24T05:51:40.290Z,74.37
2023-04-24T05:52:39.684Z,74.90
2023-04-24T05:53:40.678Z,75.02
2023-04-24T05:54:39.474Z,75.20
2023-04-24T05:55:39.707Z,75.40
2023-04-24T05:56:41.210Z,75.33
2023-04-24T05:57:39.673Z,75.44
2023-04-24T05:58:39.976Z,75.16
2023-04-24T05:59:41.100Z,75.11
2023-04-24T06:00:40.609Z,75.24
2023-04-24T06:01:39.370Z,75.32
2023-04-24T06:02:39.816Z,75.34
2023-04-24T06:03:40.430Z,75.30
2023-04-24T06:04:41.681Z,75.24
2023-04-24T06:05:39.839Z,75.31
2023-04-24T06:06:40.218Z,75.28
2023-04-24T06:07:39.677Z,75.33
2023-04-24T06:08:40.010Z,75.35
2023-04-24T06:09:39.495Z,75.41
2023-04-24T06:10:40.178Z,75.44
2023-04-24T06:11:39.357Z,75.48
2023-04-24T06:12:44.478Z,75.55
2023-04-24T06:13:39.818Z,75.45
2023-04-24T06:14:40.344Z,75.43
2023-04-24T06:15:40.738Z,75.41
2023-04-24T06:16:40.327Z,75.51
2023-04-24T06:17:40.167Z,75.58
2023-04-24T06:18:39.711Z,75.49
2023-04-24T06:19:40.344Z,75.44
2023-04-24T06:20:40.022Z,75.46
2023-04-24T06:21:39.438Z,75.55
2023-04-24T06:22:40.391Z,75.69
2023-04-24T06:23:40.050Z,75.74
2023-04-24T06:24:39.412Z,75.68
2023-04-24T06:25:39.838Z,75.52
2023-04-24T06:26:40.288Z,75.37
2023-04-24T06:27:39.997Z,75.40
2023-04-24T06:28:39.517Z,75.42
2023-04-24T06:29:39.755Z,75.39
2023-04-24T06:30:40.157Z,75.62
2023-04-24T06:31:39.881Z,75.79
2023-04-24T06:32:40.796Z,75.69
2023-04-24T06:33:39.789Z,75.69
2023-04-24T06:35:11.819Z,75.73
2023-04-24T06:35:44.393Z,75.63
2023-04-24T06:36:39.539Z,75.61
2023-04-24T06:37:39.677Z,75.55
2023-04-24T06:38:39.788Z,75.61
2023-04-24T06:39:40.364Z,75.97
2023-04-24T06:40:40.256Z,76.20
2023-04-24T06:41:39.647Z,76.41
2023-04-24T06:42:39.783Z,76.42
2023-04-24T06:43:39.850Z,76.36
2023-04-24T06:44:40.061Z,76.31
2023-04-24T06:45:40.297Z,76.35
2023-04-24T06:46:41.879Z,76.33
2023-04-24T06:47:40.125Z,76.45
2023-04-24T06:48:40.315Z,76.47
2023-04-24T06:49:40.195Z,76.40
2023-04-24T06:50:40.681Z,76.52
2023-04-24T06:51:40.246Z,76.71
2023-04-24T06:52:40.140Z,76.70
2023-04-24T06:53:39.687Z,76.72
2023-04-24T06:54:40.124Z,76.61
2023-04-24T06:55:39.822Z,76.57
2023-04-24T06:56:40.508Z,76.62
2023-04-24T06:57:39.629Z,76.64
2023-04-24T06:58:39.795Z,76.63
2023-04-24T06:59:40.859Z,76.64
2023-04-24T07:00:41.606Z,76.68
2023-04-24T07:01:40.347Z,76.84
2023-04-24T07:02:40.082Z,76.90
2023-04-24T07:03:40.168Z,76.99
2023-04-24T07:04:40.222Z,77.02
2023-04-24T07:05:39.977Z,76.93
2023-04-24T07:06:39.381Z,76.66
2023-04-24T07:07:41.288Z,76.55
2023-04-24T07:08:39.944Z,76.71
2023-04-24T07:09:40.455Z,76.85
2023-04-24T07:10:40.193Z,76.81
2023-04-24T07:11:40.300Z,76.95
2023-04-24T07:12:39.398Z,76.95
2023-04-24T07:13:40.242Z,77.10
2023-04-24T07:14:40.500Z,77.25
2023-04-24T07:15:40.541Z,77.18
2023-04-24T07:16:40.841Z,77.33
2023-04-24T07:17:40.435Z,77.31
2023-04-24T07:18:39.823Z,77.25
2023-04-24T07:19:40.463Z,77.55
2023-04-24T07:20:40.709Z,77.64
2023-04-24T07:21:40.100Z,77.66
2023-04-24T07:22:40.229Z,77.73
2023-04-24T07:23:39.488Z,77.96
2023-04-24T07:24:42.259Z,78.29
2023-04-24T07:25:40.615Z,78.59
2023-04-24T07:26:39.413Z,78.50
2023-04-24T07:27:40.506Z,78.43
2023-04-24T07:28:39.493Z,78.51
2023-04-24T07:29:40.214Z,78.59
2023-04-24T07:30:39.964Z,78.62
2023-04-24T07:31:40.420Z,78.76
2023-04-24T07:32:39.335Z,78.97
2023-04-24T07:33:39.677Z,79.18
2023-04-24T07:34:39.409Z,79.18
2023-04-24T07:35:39.959Z,79.18
2023-04-24T07:36:40.438Z,79.44
2023-04-24T07:37:39.570Z,79.61
2023-04-24T07:38:39.958Z,79.94
2023-04-24T07:39:40.161Z,80.18
2023-04-24T07:40:40.187Z,80.18
2023-04-24T07:41:40.383Z,80.13
2023-04-24T07:42:39.616Z,80.26
2023-04-24T07:43:39.661Z,80.18
2023-04-24T07:44:40.447Z,79.84
2023-04-24T07:45:40.044Z,79.59
2023-04-24T07:46:40.018Z,79.73
2023-04-24T07:47:40.466Z,80.04
2023-04-24T07:48:40.113Z,80.13
2023-04-24T07:49:39.784Z,80.23
2023-04-24T07:50:40.392Z,80.05
2023-04-24T07:51:39.811Z,80.08
2023-04-24T07:52:40.082Z,80.32
2023-04-24T07:53:38.968Z,80.33
2023-04-24T07:54:39.006Z,80.30
2023-04-24T07:55:43.380Z,80.35
2023-04-24T07:56:42.010Z,80.59
2023-04-24T07:57:40.003Z,80.50
2023-04-24T07:58:39.872Z,79.84
2023-04-24T07:59:40.339Z,79.47
2023-04-24T08:00:40.774Z,79.55
2023-04-24T08:01:45.234Z,79.26
2023-04-24T08:02:39.863Z,79.23
2023-04-24T08:03:45.111Z,78.80
2023-04-24T08:04:39.927Z,78.65
2023-04-24T08:05:42.662Z,78.97
2023-04-24T08:06:39.996Z,78.98
2023-04-24T08:07:43.972Z,79.01
2023-04-24T08:08:39.239Z,79.18
2023-04-24T08:09:43.086Z,79.26
2023-04-24T08:10:39.697Z,79.37
2023-04-24T08:11:40.534Z,79.37
2023-04-24T08:12:39.477Z,79.46
2023-04-24T08:13:47.151Z,79.44
2023-04-24T08:14:39.038Z,79.55
2023-04-24T08:15:39.768Z,79.40
2023-04-24T08:16:40.229Z,79.37
2023-04-24T08:17:40.178Z,78.94
2023-04-24T08:18:41.567Z,78.58
2023-04-24T08:19:40.269Z,78.47
2023-04-24T08:20:39.415Z,78.38
2023-04-24T08:21:39.715Z,78.37
2023-04-24T08:22:40.243Z,78.44
2023-04-24T08:23:39.797Z,78.58
2023-04-24T08:24:39.820Z,78.60
2023-04-24T08:25:39.806Z,78.56
2023-04-24T08:26:40.244Z,78.83
2023-04-24T08:27:40.118Z,78.84
2023-04-24T08:28:39.466Z,78.76
2023-04-24T08:29:39.628Z,78.80
2023-04-24T08:30:40.181Z,78.72
2023-04-24T08:31:39.657Z,78.80
2023-04-24T08:32:40.123Z,78.54
2023-04-24T08:33:39.281Z,78.57
2023-04-24T08:34:39.681Z,78.80
2023-04-24T08:35:39.800Z,79.09
2023-04-24T08:36:51.585Z,79.30
2023-04-24T08:37:39.390Z,79.44
2023-04-24T08:38:41.529Z,79.50
2023-04-24T08:39:39.476Z,79.59
2023-04-24T08:40:40.099Z,79.78
2023-04-24T08:41:39.566Z,79.79
2023-04-24T08:42:39.368Z,79.65
2023-04-24T08:43:39.607Z,79.58
2023-04-24T08:44:39.865Z,79.67
2023-04-24T08:45:40.077Z,79.54
2023-04-24T08:46:39.502Z,79.72
2023-04-24T08:47:39.622Z,79.95
2023-04-24T08:48:47.498Z,79.92
2023-04-24T08:49:39.300Z,79.94
2023-04-24T08:50:39.378Z,79.73
2023-04-24T08:51:39.918Z,79.62
2023-04-24T08:52:39.846Z,79.85
2023-04-24T08:53:40.204Z,80.04
2023-04-24T08:54:39.835Z,80.25
2023-04-24T08:55:40.441Z,80.33
2023-04-24T08:56:39.414Z,80.33
2023-04-24T08:57:39.362Z,80.40
2023-04-24T08:58:39.928Z,80.35
2023-04-24T08:59:40.379Z,80.47
2023-04-24T09:00:40.518Z,80.33
2023-04-24T09:01:39.809Z,80.35
2023-04-24T09:02:39.951Z,80.21
2023-04-24T09:03:39.960Z,80.19
2023-04-24T09:04:40.264Z,80.33
2023-04-24T09:05:43.505Z,80.26
2023-04-24T09:06:39.844Z,80.29
2023-04-24T09:07:39.778Z,80.69
2023-04-24T09:08:39.833Z,80.66
2023-04-24T09:09:40.264Z,80.66
2023-04-24T09:10:40.582Z,80.80
2023-04-24T09:11:39.750Z,80.97
2023-04-24T09:12:39.737Z,80.91
2023-04-24T09:13:39.884Z,81.09
2023-04-24T09:14:39.799Z,81.01
2023-04-24T09:15:40.170Z,80.85
2023-04-24T09:16:39.485Z,80.86
2023-04-24T09:17:39.880Z,81.19
2023-04-24T09:18:40.351Z,81.04
2023-04-24T09:19:39.584Z,80.87
2023-04-24T09:20:40.175Z,80.92
2023-04-24T09:21:39.599Z,80.96
2023-04-24T09:22:39.813Z,81.19
2023-04-24T09:23:40.028Z,80.92
2023-04-24T09:24:39.738Z,81.01
2023-04-24T09:25:40.798Z,81.40
2023-04-24T09:26:40.551Z,81.46
2023-04-24T09:27:39.852Z,81.54
2023-04-24T09:28:39.982Z,81.44
2023-04-24T09:29:39.290Z,81.43
2023-04-24T09:30:40.496Z,81.68
2023-04-24T09:31:40.554Z,81.92
2023-04-24T09:32:40.535Z,81.98
2023-04-24T09:33:40.644Z,82.01
2023-04-24T09:34:39.205Z,82.06
2023-04-24T09:35:39.492Z,82.08
2023-04-24T09:36:39.925Z,82.32
2023-04-24T09:37:40.184Z,82.53
2023-04-24T09:38:40.178Z,82.65
2023-04-24T09:39:39.140Z,82.51
2023-04-24T09:40:41.509Z,82.43
2023-04-24T09:41:40.085Z,82.44
2023-04-24T09:42:39.426Z,82.51
2023-04-24T09:43:39.767Z,82.58
2023-04-24T09:44:39.824Z,82.47
2023-04-24T09:45:39.929Z,82.24
2023-04-24T09:46:40.856Z,81.91
2023-04-24T09:47:40.085Z,82.05
2023-04-24T09:48:39.746Z,82.06
2023-04-24T09:49:39.746Z,82.08
2023-04-24T09:50:40.177Z,82.24
2023-04-24T09:51:39.853Z,82.17
2023-04-24T09:52:40.551Z,82.17
2023-04-24T09:53:39.566Z,82.25
2023-04-24T09:54:39.781Z,82.35
2023-04-24T09:55:39.222Z,82.47
2023-04-24T09:56:39.515Z,82.52
2023-04-24T09:57:39.588Z,82.56
2023-04-24T09:58:40.090Z,82.28
2023-04-24T09:59:39.802Z,82.19
2023-04-24T10:00:41.046Z,82.36
2023-04-24T10:01:39.771Z,82.42
2023-04-24T10:02:39.573Z,82.40
2023-04-24T10:03:40.272Z,82.12
2023-04-24T10:04:39.560Z,82.01
2023-04-24T10:05:39.744Z,81.99
2023-04-24T10:06:39.700Z,81.96
2023-04-24T10:08:43.019Z,82.33
2023-04-24T10:09:40.926Z,82.06
2023-04-24T10:10:40.432Z,81.71
2023-04-24T10:11:40.426Z,81.72
2023-04-24T10:12:40.459Z,81.69
2023-04-24T10:13:40.085Z,81.70
2023-04-24T10:14:39.798Z,81.77
2023-04-24T10:15:40.642Z,81.81
2023-04-24T10:16:40.347Z,81.63
2023-04-24T10:17:40.103Z,81.89
2023-04-24T10:18:59.007Z,82.24
2023-04-24T10:19:39.870Z,82.30
2023-04-24T10:20:40.650Z,82.54
2023-04-24T10:21:40.198Z,82.61
2023-04-24T10:22:58.780Z,82.66
2023-04-24T10:23:39.750Z,82.57
2023-04-24T10:24:40.095Z,82.36
2023-04-24T10:25:39.575Z,82.41
2023-04-24T10:27:02.159Z,82.46
2023-04-24T10:27:39.570Z,82.58
2023-04-24T10:28:39.601Z,82.67
2023-04-24T10:29:39.996Z,82.67
2023-04-24T10:31:12.983Z,82.69
2023-04-24T10:31:45.428Z,82.59
2023-04-24T10:32:40.124Z,82.43
2023-04-24T10:33:39.553Z,82.04
2023-04-24T10:35:39.616Z,81.01
2023-04-24T10:36:39.746Z,80.40
2023-04-24T10:37:39.336Z,80.19
2023-04-24T10:38:39.780Z,79.87
2023-04-24T10:39:43.341Z,79.71
2023-04-24T10:40:39.409Z,79.96
2023-04-24T10:41:39.693Z,80.05
2023-04-24T10:42:39.563Z,80.23
2023-04-24T10:43:39.780Z,80.62
2023-04-24T10:44:39.750Z,80.56
2023-04-24T10:45:39.938Z,80.39
2023-04-24T10:46:40.083Z,80.17
2023-04-24T10:47:40.387Z,80.18
2023-04-24T10:48:40.294Z,80.36
2023-04-24T10:49:39.484Z,80.44
2023-04-24T10:50:39.970Z,80.24
2023-04-24T10:51:39.921Z,79.91
2023-04-24T10:52:40.289Z,79.80
2023-04-24T10:53:40.092Z,79.41
2023-04-24T10:54:40.549Z,78.94
2023-04-24T10:55:40.002Z,78.93
2023-04-24T10:56:40.169Z,79.12
2023-04-24T10:57:40.004Z,79.61
2023-04-24T10:58:40.348Z,79.33
2023-04-24T10:59:39.627Z,79.11
2023-04-24T11:00:41.135Z,78.98
2023-04-24T11:01:40.142Z,78.77
2023-04-24T11:02:39.688Z,77.98
2023-04-24T11:03:40.353Z,77.52
2023-04-24T11:04:40.331Z,77.39
2023-04-24T11:05:39.633Z,77.42
2023-04-24T11:06:39.922Z,77.55
2023-04-24T11:07:39.951Z,78.04
2023-04-24T11:08:40.060Z,78.23
2023-04-24T11:09:39.509Z,78
2023-04-24T11:10:40.593Z,77.01
2023-04-24T11:11:40.512Z,76.30
2023-04-24T11:12:39.770Z,76.52
2023-04-24T11:13:39.996Z,76.40
2023-04-24T11:15:20.471Z,76.35
2023-04-24T11:15:44.815Z,76.01
2023-04-24T11:16:41.034Z,75.93
2023-04-24T11:17:39.906Z,75.16
2023-04-24T11:18:40.036Z,75.13
2023-04-24T11:19:40.362Z,74.41
2023-04-24T11:20:44.162Z,74.33
2023-04-24T11:21:39.677Z,74.91
2023-04-24T11:22:40.058Z,75.43
2023-04-24T11:23:40.161Z,75.77
2023-04-24T11:24:39.858Z,76.16
2023-04-24T11:25:40.058Z,76.20
2023-04-24T11:26:40.326Z,75.75
2023-04-24T11:27:44.840Z,75.75
2023-04-24T11:28:41.943Z,75.97
2023-04-24T11:29:44.972Z,76.21
2023-04-24T11:30:40.294Z,76.22
2023-04-24T11:31:40.519Z,76.12
2023-04-24T11:32:40.584Z,75.86
2023-04-24T11:33:45.004Z,75.93
2023-04-24T11:34:40.308Z,75.72
2023-04-24T11:35:39.598Z,75.58
2023-04-24T11:36:39.808Z,75.59
2023-04-24T11:37:45.331Z,75.71
2023-04-24T11:38:40.891Z,75.93
2023-04-24T11:39:40.092Z,75.95
2023-04-24T11:40:40.455Z,75.85
2023-04-24T11:41:48.523Z,75.82
2023-04-24T11:42:39.897Z,76.22
2023-04-24T11:43:40.252Z,76.35
2023-04-24T11:44:39.784Z,76.39
2023-04-24T11:45:48.581Z,76.38
2023-04-24T11:46:40.118Z,76.36
2023-04-24T11:47:40.137Z,76.32
2023-04-24T11:48:40.464Z,76.30
2023-04-24T11:49:53.407Z,76.34
2023-04-24T11:50:40.158Z,76.44
2023-04-24T11:51:51.367Z,76.91
2023-04-24T11:52:40.238Z,76.62
2023-04-24T11:54:01.594Z,76.37
2023-04-24T11:54:40.472Z,76.46
2023-04-24T11:55:53.669Z,76.64
2023-04-24T11:56:39.949Z,76.78
2023-04-24T11:57:53.657Z,76.48
2023-04-24T11:58:39.747Z,75.94
2023-04-24T11:59:39.529Z,75.75
2023-04-24T12:00:41.741Z,75.78
2023-04-24T12:01:54.501Z,75.60
2023-04-24T12:02:41.367Z,75.25
2023-04-24T12:03:40.574Z,75.12
2023-04-24T12:04:40.802Z,75.5
2023-04-24T12:05:41.049Z,75.65
2023-04-24T12:06:40.251Z,75.72
2023-04-24T12:07:58.954Z,75.77
2023-04-24T12:08:40.472Z,75.78
2023-04-24T12:09:45.720Z,75.53
2023-04-24T12:10:40.449Z,75.30
2023-04-24T12:11:58.672Z,75.32
2023-04-24T12:12:40.604Z,75.27
2023-04-24T12:13:45.355Z,74.80
2023-04-24T12:14:39.989Z,74.02
2023-04-24T12:16:03.730Z,74.03
2023-04-24T12:16:40.217Z,73.91
2023-04-24T12:17:48.229Z,73.61
2023-04-24T12:18:39.907Z,73.33
2023-04-24T12:19:48.344Z,73.12
2023-04-24T12:20:39.905Z,73.23
2023-04-24T12:22:12.297Z,73.43
2023-04-24T12:22:45.367Z,73.33
2023-04-24T12:23:47.736Z,73.03
2023-04-24T12:24:39.985Z,73.24
2023-04-24T12:26:11.932Z,73.34
2023-04-24T12:26:44.297Z,73.45
2023-04-24T12:27:54.286Z,72.84
2023-04-24T12:28:39.854Z,72.16
2023-04-24T12:29:54.185Z,72.11
2023-04-24T12:30:39.854Z,71.45
2023-04-24T12:31:40.023Z,70.31
2023-04-24T12:32:43.895Z,70.63
2023-04-24T12:33:54.187Z,70.72
2023-04-24T12:34:39.476Z,70.84
2023-04-24T12:35:39.977Z,70.98
2023-04-24T12:36:40.151Z,71.45
2023-04-24T12:37:40.189Z,71.66
2023-04-24T12:38:39.971Z,71.60
2023-04-24T12:39:40.696Z,71.41
2023-04-24T12:40:40.316Z,71.42
2023-04-24T12:41:39.681Z,71.57
2023-04-24T12:42:40.423Z,71.59
2023-04-24T12:43:39.778Z,71.52
2023-04-24T12:44:40.631Z,71.71
2023-04-24T12:46:12.231Z,72.16
2023-04-24T12:46:44.792Z,72.66
2023-04-24T12:47:40.297Z,73.51
2023-04-24T12:48:39.933Z,74.54
2023-04-24T12:49:39.709Z,75.54
2023-04-24T12:50:40.330Z,76.00
2023-04-24T12:51:39.963Z,76.26
2023-04-24T12:52:40.596Z,76.65
2023-04-24T12:53:40.263Z,77.26
2023-04-24T12:54:39.989Z,77.68
2023-04-24T12:55:40.629Z,77.91